Terminal Aerodrome Forecast
Issued by NWS Detroit/Pontiac, MI

Current Version | Previous Version | Text Only | Print | Product List | Glossary On
Versions: 1 2 3 4 5 6 7 8 9 10 11 12 13 14 15 16 17 18 19 20 21 22 23 24 25 26 27 28 29
000
FTUS43 KDTX 210500
TAFDTW
TAF
KDTW 210535Z 2106/2212 24005KT P6SM SCT040
     FM211000 VRB03KT 3SM BR SCT040 BKN080
     FM211400 27005KT P6SM BKN040
     FM211900 27007KT P6SM SCT045 PROB30 2122/2201 2SM TSRA OVC025CB
     FM220100 VRB03KT 6SM -SHRA OVC045=

USA.gov is the U.S. government's official web portal to all federal, state and local government web resources and services.